Time;durP1;ratioP1;P1;durP2;ratioP2;P2;SDS_P1;SDS_P2;PMS_P1;PMS_P2;Temp;Humidity;BMP_temperature;BMP_pressure;BME280_temperature;BME280_humidity;BME280_pressure;Samples;Min_cycle;Max_cycle;Signal;HPM_P1;HPM_P2
2021/10/09 00:01:19;;;;;;;;;;;;;;;13.34;76.46;103016.91;5090687;28;20424;-73
2021/10/09 00:03:47;;;;;;;;;;;;;;;13.35;76.87;103017.78;5090574;28;19972;-73
2021/10/09 00:06:15;;;;;;;;;;;;;;;13.35;76.99;103017.78;5090218;28;20160;-73
2021/10/09 00:08:44;;;;;;;;;;;;;;;13.28;77.00;103014.47;5090469;28;20474;-73
2021/10/09 00:11:16;;;;;;;;;;;;;;;13.30;77.11;103014.41;5090538;28;20373;-73
2021/10/09 00:13:44;;;;;;;;;;;;;;;13.29;77.00;103021.63;5090725;28;19979;-73
2021/10/09 00:16:12;;;;;;;;;;;;;;;13.27;77.46;103015.44;5090188;28;19968;-73
2021/10/09 00:18:40;;;;;;;;;;;;;;;13.32;77.21;103018.78;5090444;28;19999;-74
2021/10/09 00:21:08;;;;;;;;;;;;;;;13.27;76.74;103015.44;5089941;28;19990;-73
2021/10/09 00:23:36;;;;;;;;;;;;;;;13.30;77.59;103020.69;5090004;28;19972;-73
2021/10/09 00:26:05;;;;;;;;;;;;;;;13.24;77.36;103015.56;5089582;28;20027;-73
2021/10/09 00:28:33;;;;;;;;;;;;;;;13.23;77.15;103019.19;5089845;28;19976;-73
2021/10/09 00:31:01;;;;;;;;;;;;;;;13.20;77.46;103013.94;5071612;28;19983;-73
2021/10/09 00:33:29;;;;;;;;;;;;;;;13.19;77.45;103020.28;5090125;28;19995;-73
2021/10/09 00:35:57;;;;;;;;;;;;;;;13.17;77.36;103023.94;5090088;28;19972;-73
2021/10/09 00:38:24;;;;;;;;;;;;;;;13.14;78.19;103021.34;5089722;28;19984;-73
2021/10/09 00:40:52;;;;;;;;;;;;;;;13.08;77.63;103014.41;5089745;28;20089;-73
2021/10/09 00:43:22;;;;;;;;;;;;;;;13.14;77.42;103014.13;5076084;28;20428;-73
2021/10/09 00:45:50;;;;;;;;;;;;;;;13.10;77.69;103012.50;5071504;28;19973;-73
2021/10/09 00:48:19;;;;;;;;;;;;;;;13.02;78.14;103017.34;5071436;28;20455;-73
2021/10/09 00:50:47;;;;;;;;;;;;;;;13.00;77.45;103011.16;5071360;28;20400;-73
2021/10/09 00:53:15;;;;;;;;;;;;;;;13.01;76.95;103016.47;5089190;28;20170;-73
2021/10/09 00:55:43;;;;;;;;;;;;;;;12.97;77.26;103008.59;5089540;28;20533;-73
2021/10/09 00:58:11;;;;;;;;;;;;;;;12.94;77.16;103011.41;5089372;28;20389;-73
2021/10/09 01:00:42;;;;;;;;;;;;;;;12.89;77.17;103008.03;5069308;28;20420;-73
2021/10/09 01:03:10;;;;;;;;;;;;;;;12.93;76.52;102998.88;5050960;28;19973;-73
2021/10/09 01:05:39;;;;;;;;;;;;;;;12.88;76.68;103004.44;5079911;28;20106;-74
2021/10/09 01:08:09;;;;;;;;;;;;;;;12.83;77.45;102997.47;5057036;28;20018;-73
2021/10/09 01:10:37;;;;;;;;;;;;;;;12.77;76.71;103001.28;5051288;28;20375;-73
2021/10/09 01:13:06;;;;;;;;;;;;;;;12.73;77.28;102995.16;5087556;28;20087;-73
2021/10/09 01:15:35;;;;;;;;;;;;;;;12.66;77.35;102995.47;5067730;28;19981;-73
2021/10/09 01:18:10;;;;;;;;;;;;;;;12.62;77.27;102989.31;5085322;28;20030;-73
2021/10/09 01:20:50;;;;;;;;;;;;;;;12.59;77.82;102988.56;5070942;28;20071;-73
2021/10/09 01:23:21;;;;;;;;;;;;;;;12.51;77.47;102983.47;5070689;28;19994;-73
2021/10/09 01:25:49;;;;;;;;;;;;;;;12.53;77.76;102988.78;5089124;28;19972;-73
2021/10/09 01:28:17;;;;;;;;;;;;;;;12.53;77.63;102988.78;5070458;28;20060;-73
2021/10/09 01:30:46;;;;;;;;;;;;;;;12.52;77.60;102987.91;5080680;28;19972;-73
2021/10/09 01:33:15;;;;;;;;;;;;;;;12.55;77.91;102981.53;5088488;28;19992;-73
2021/10/09 01:35:49;;;;;;;;;;;;;;;12.51;77.35;102986.16;5071024;28;19972;-73
2021/10/09 01:38:21;;;;;;;;;;;;;;;12.53;79.60;102986.09;5070569;28;19976;-73
2021/10/09 01:40:51;;;;;;;;;;;;;;;12.52;78.50;102985.22;5070681;28;20054;-73
2021/10/09 01:43:20;;;;;;;;;;;;;;;12.54;79.07;102983.34;5070572;28;20428;-73
2021/10/09 01:45:48;;;;;;;;;;;;;;;12.59;78.70;102985.88;5070774;28;20473;-73
2021/10/09 01:48:16;;;;;;;;;;;;;;;12.64;78.00;102979.34;5088785;28;19979;-73
2021/10/09 01:50:45;;;;;;;;;;;;;;;12.66;77.89;102980.16;5070770;28;20026;-73
2021/10/09 01:53:15;;;;;;;;;;;;;;;12.62;77.63;102978.53;5070222;28;20090;-73
2021/10/09 01:55:44;;;;;;;;;;;;;;;12.60;77.47;102975.03;5070492;28;19991;-73
2021/10/09 01:58:13;;;;;;;;;;;;;;;12.62;77.34;102969.59;5069824;28;19998;-73
2021/10/09 02:00:42;;;;;;;;;;;;;;;12.62;77.60;102970.47;5072146;28;19968;-73
2021/10/09 02:03:10;;;;;;;;;;;;;;;12.61;78.05;102970.53;5072029;28;19986;-73
2021/10/09 02:05:38;;;;;;;;;;;;;;;12.64;77.70;102968.56;5092661;28;19972;-73
2021/10/09 02:08:06;;;;;;;;;;;;;;;12.59;77.61;102967.88;5092955;28;20008;-73
2021/10/09 02:10:38;;;;;;;;;;;;;;;12.59;77.16;102964.31;5091316;28;19972;-73
2021/10/09 02:13:14;;;;;;;;;;;;;;;12.59;77.45;102961.63;5074309;28;19996;-73
2021/10/09 02:15:47;;;;;;;;;;;;;;;12.58;77.15;102968.81;5074004;28;20029;-74
2021/10/09 02:26:41;;;;;;;;;;;;;;;12.54;77.32;102953.69;5066835;28;19955;-73
2021/10/09 02:29:11;;;;;;;;;;;;;;;12.54;77.21;102956.38;5081603;28;19984;-73
2021/10/09 02:31:39;;;;;;;;;;;;;;;12.53;77.51;102953.75;5074036;28;20055;-73
2021/10/09 02:34:12;;;;;;;;;;;;;;;12.44;77.73;102949.63;5073882;28;20122;-73
2021/10/09 02:36:41;;;;;;;;;;;;;;;12.46;77.47;102950.44;5074073;28;20431;-73
2021/10/09 02:39:10;;;;;;;;;;;;;;;12.46;78.15;102955.81;5073457;28;20232;-72
2021/10/09 02:41:39;;;;;;;;;;;;;;;12.47;78.08;102944.09;5069414;28;20322;-73
2021/10/09 02:44:07;;;;;;;;;;;;;;;12.52;77.46;102955.56;5085746;28;20425;-73
2021/10/09 02:46:38;;;;;;;;;;;;;;;12.53;77.56;102957.31;5073217;28;20413;-73
2021/10/09 02:49:06;;;;;;;;;;;;;;;12.51;78.19;102951.13;5073285;28;19973;-74
2021/10/09 02:51:34;;;;;;;;;;;;;;;12.55;76.85;102954.56;5073931;28;19972;-73
2021/10/09 02:54:02;;;;;;;;;;;;;;;12.55;77.88;102954.56;5073272;28;20385;-73
2021/10/09 02:56:29;;;;;;;;;;;;;;;12.52;77.89;102955.56;5091851;28;20443;-73
2021/10/09 02:58:58;;;;;;;;;;;;;;;12.56;77.42;102953.66;5091728;28;19976;-73
2021/10/09 03:01:25;;;;;;;;;;;;;;;12.57;77.20;102947.31;5073666;28;19976;-73
2021/10/09 03:03:55;;;;;;;;;;;;;;;12.53;77.75;102948.38;5091935;28;20026;-73
2021/10/09 03:06:26;;;;;;;;;;;;;;;12.57;77.66;102942.81;5073738;28;20030;-73
2021/10/09 03:08:54;;;;;;;;;;;;;;;12.55;77.92;102939.31;5071069;28;19968;-73
2021/10/09 03:11:22;;;;;;;;;;;;;;;12.17;78.62;102881.53;5069489;28;19972;-73
2021/10/09 03:13:50;;;;;;;;;;;;;;;12.52;77.82;102938.53;5069243;28;20476;-73
2021/10/09 03:16:18;;;;;;;;;;;;;;;12.58;77.44;102941.00;5082039;28;20063;-73
2021/10/09 03:18:46;;;;;;;;;;;;;;;12.55;78.13;102944.69;5067370;28;19972;-73
2021/10/09 03:21:15;;;;;;;;;;;;;;;12.55;77.66;102944.69;5088025;28;19969;-73
2021/10/09 03:23:44;;;;;;;;;;;;;;;12.55;77.98;102935.69;5070962;28;20022;-72
2021/10/09 03:26:15;;;;;;;;;;;;;;;12.55;78.17;102941.09;5070253;28;19972;-72
2021/10/09 03:28:43;;;;;;;;;;;;;;;12.48;78.93;102935.09;5070443;28;20079;-72
2021/10/09 03:31:12;;;;;;;;;;;;;;;12.55;78.06;102939.31;5065219;28;20454;-72
2021/10/09 03:33:40;;;;;;;;;;;;;;;12.57;77.73;102942.81;5085880;28;19992;-73
2021/10/09 03:36:08;;;;;;;;;;;;;;;12.52;78.32;102950.19;5071517;28;19975;-73
2021/10/09 03:38:39;;;;;;;;;;;;;;;12.51;78.62;102943.03;5071770;28;19977;-73
2021/10/09 03:41:07;;;;;;;;;;;;;;;12.57;78.36;102944.63;5069132;28;19980;-73
2021/10/09 03:43:36;;;;;;;;;;;;;;;12.53;78.62;102945.66;5070499;28;20359;-72
2021/10/09 03:46:09;;;;;;;;;;;;;;;12.52;78.49;102952.00;5072395;28;20343;-73
2021/10/09 03:48:52;;;;;;;;;;;;;;;12.50;79.15;102956.56;5090667;28;20026;-73
2021/10/09 03:54:11;;;;;;;;;;;;;;;12.57;77.34;102950.91;5086710;28;20531;-73
2021/10/09 03:56:41;;;;;;;;;;;;;;;12.58;77.74;102949.09;5072390;28;20004;-73
2021/10/09 03:59:09;;;;;;;;;;;;;;;12.60;77.30;102950.78;5090212;28;20363;-73
2021/10/09 04:01:38;;;;;;;;;;;;;;;12.61;77.97;102955.22;5090563;28;19977;-73
2021/10/09 04:04:07;;;;;;;;;;;;;;;12.59;80.00;102954.41;5071819;28;20412;-73
2021/10/09 04:06:36;;;;;;;;;;;;;;;12.58;79.82;102952.66;5080546;28;19995;-73
2021/10/09 04:09:05;;;;;;;;;;;;;;;12.65;81.05;102964.94;5071552;28;19975;-73
2021/10/09 04:11:34;;;;;;;;;;;;;;;12.70;80.93;102964.75;5072209;28;20385;-73
2021/10/09 04:14:02;;;;;;;;;;;;;;;12.75;79.52;102969.00;5090104;28;19988;-73
2021/10/09 04:16:30;;;;;;;;;;;;;;;12.84;78.85;102950.69;5072400;28;20350;-73
2021/10/09 04:18:58;;;;;;;;;;;;;;;12.89;79.24;102954.09;5069535;28;19972;-73
2021/10/09 04:21:26;;;;;;;;;;;;;;;12.89;79.34;102952.28;5071938;28;19994;-73
2021/10/09 04:23:54;;;;;;;;;;;;;;;12.86;79.25;102955.09;5072273;28;19973;-73
2021/10/09 04:26:23;;;;;;;;;;;;;;;12.86;79.30;102949.69;5071498;28;20063;-72
2021/10/09 04:28:53;;;;;;;;;;;;;;;12.91;78.04;102939.59;5089067;28;20404;-73
2021/10/09 04:31:21;;;;;;;;;;;;;;;12.93;78.71;102936.84;5071374;28;20074;-73
2021/10/09 04:33:49;;;;;;;;;;;;;;;12.92;79.07;102941.34;5072013;28;19991;-73
2021/10/09 04:36:20;;;;;;;;;;;;;;;12.85;79.33;102937.13;5071663;28;20280;-73
2021/10/09 04:38:48;;;;;;;;;;;;;;;12.92;78.56;102951.25;5071310;28;19972;-73
2021/10/09 04:41:16;;;;;;;;;;;;;;;12.85;78.83;102944.34;5071341;28;19972;-73
2021/10/09 04:43:44;;;;;;;;;;;;;;;12.86;78.50;102947.00;5089815;28;19968;-73
2021/10/09 04:46:16;;;;;;;;;;;;;;;12.82;78.92;102947.16;5071253;28;19999;-73
2021/10/09 04:48:44;;;;;;;;;;;;;;;12.75;79.40;102939.34;5071588;28;19968;-74
2021/10/09 04:51:12;;;;;;;;;;;;;;;12.71;79.20;102935.03;5084692;28;19969;-73
2021/10/09 04:53:40;;;;;;;;;;;;;;;12.74;79.14;102939.41;5061354;28;20000;-73
2021/10/09 04:56:08;;;;;;;;;;;;;;;12.75;79.03;102947.44;5063568;28;20079;-66
2021/10/09 04:58:37;;;;;;;;;;;;;;;12.73;79.66;102941.22;5071386;28;20030;-67
2021/10/09 05:01:07;;;;;;;;;;;;;;;12.84;78.28;102939.91;5070518;28;20419;-67
2021/10/09 05:03:36;;;;;;;;;;;;;;;12.80;78.80;102938.28;5069472;28;20442;-66
2021/10/09 05:06:05;;;;;;;;;;;;;;;12.74;78.83;102940.28;5089344;28;19968;-67
2021/10/09 05:08:33;;;;;;;;;;;;;;;12.72;79.43;102936.78;5088566;28;19972;-73
2021/10/09 05:11:02;;;;;;;;;;;;;;;12.67;79.49;102941.50;5088620;28;19975;-73
2021/10/09 05:13:32;;;;;;;;;;;;;;;12.56;79.87;102941.06;5070167;28;19983;-73
2021/10/09 05:16:00;;;;;;;;;;;;;;;12.58;80.28;102939.19;5070412;28;20057;-73
2021/10/09 05:18:30;;;;;;;;;;;;;;;12.63;79.88;102939.88;5071269;28;19995;-74
2021/10/09 05:21:00;;;;;;;;;;;;;;;12.62;79.88;102939.94;5070687;28;19968;-73
2021/10/09 05:23:31;;;;;;;;;;;;;;;12.66;80.24;102934.34;5070924;28;19973;-73
2021/10/09 05:25:59;;;;;;;;;;;;;;;12.69;79.60;102941.41;5070963;28;19979;-73
2021/10/09 05:28:39;;;;;;;;;;;;;;;12.63;80.00;102937.16;5064521;28;19979;-73
2021/10/09 05:31:08;;;;;;;;;;;;;;;12.63;80.16;102942.56;5085942;28;19968;-73
2021/10/09 05:33:42;;;;;;;;;;;;;;;12.62;80.66;102943.50;5064955;28;19973;-66
2021/10/09 05:36:11;;;;;;;;;;;;;;;12.58;80.89;102941.88;5070711;28;19988;-67
2021/10/09 05:38:40;;;;;;;;;;;;;;;12.57;80.62;102939.25;5065820;28;20624;-73
2021/10/09 05:41:08;;;;;;;;;;;;;;;12.68;80.25;102945.94;5063502;28;20432;-73
2021/10/09 05:43:43;;;;;;;;;;;;;;;12.71;80.36;102951.19;5069851;28;19977;-66
2021/10/09 05:46:11;;;;;;;;;;;;;;;12.82;79.37;102952.56;5086867;28;20361;-67
2021/10/09 05:48:40;;;;;;;;;;;;;;;12.78;79.81;102954.50;5063072;28;19973;-66
2021/10/09 05:51:14;;;;;;;;;;;;;;;12.83;79.21;102954.31;5068134;28;20454;-66
2021/10/09 05:56:47;;;;;;;;;;;;;;;12.83;79.74;102954.31;5067714;28;20060;-67
2021/10/09 06:02:23;;;;;;;;;;;;;;;12.96;78.21;102952.88;5065554;28;19972;-67
2021/10/09 06:44:28;;;;;;;;;;;;;;;13.48;78.47;102965.03;5107357;28;19976;-73
2021/10/09 06:47:12;;;;;;;;;;;;;;;13.50;77.92;102962.28;5121767;28;20063;-73
2021/10/09 07:00:44;;;;;;;;;;;;;;;13.30;79.17;102972.09;5125943;27;19996;-74
2021/10/09 07:03:17;;;;;;;;;;;;;;;13.41;78.61;102968.06;5117943;28;19973;-74
2021/10/09 07:05:46;;;;;;;;;;;;;;;13.49;78.01;102972.19;5134930;27;19976;-74
2021/10/09 07:08:26;;;;;;;;;;;;;;;13.58;77.37;102970.91;5118674;28;19979;-73
2021/10/09 07:11:04;;;;;;;;;;;;;;;13.61;77.24;102968.06;5112113;28;19952;-73
2021/10/09 07:13:33;;;;;;;;;;;;;;;13.58;77.65;102966.38;5115203;28;19990;-75
2021/10/09 07:16:01;;;;;;;;;;;;;;;13.62;77.04;102959.88;5119885;28;20049;-72
2021/10/09 07:18:33;;;;;;;;;;;;;;;13.62;77.91;102967.13;5109318;28;20018;-72
2021/10/09 07:21:01;;;;;;;;;;;;;;;13.58;78.38;102971.78;5107406;28;19993;-72
2021/10/09 07:23:29;;;;;;;;;;;;;;;13.59;78.21;102969.97;5111119;28;19981;-72
2021/10/09 07:25:57;;;;;;;;;;;;;;;13.53;78.25;102967.53;5114022;28;20083;-72
2021/10/09 07:28:25;;;;;;;;;;;;;;;13.48;79.20;102970.44;5116514;28;19985;-73
2021/10/09 07:30:54;;;;;;;;;;;;;;;13.58;78.71;102971.78;5116795;28;19972;-72
2021/10/09 07:33:22;;;;;;;;;;;;;;;13.71;77.98;102972.09;5116192;28;19977;-72
2021/10/09 07:35:54;;;;;;;;;;;;;;;13.83;77.27;102974.25;5108279;28;19976;-72
2021/10/09 07:38:22;;;;;;;;;;;;;;;13.83;76.59;102976.97;5101563;28;20289;-72
2021/10/09 07:40:49;;;;;;;;;;;;;;;13.84;77.07;102973.31;5111740;28;20485;-73
2021/10/09 07:43:17;;;;;;;;;;;;;;;13.74;78.71;102979.19;5109706;28;19977;-73
2021/10/09 07:45:45;;;;;;;;;;;;;;;13.77;78.42;102974.50;5121627;28;19977;-73
2021/10/09 07:48:14;;;;;;;;;;;;;;;13.78;78.46;102968.19;5115822;28;19977;-73
2021/10/09 07:50:42;;;;;;;;;;;;;;;13.84;78.20;102972.44;5104336;28;20010;-73
2021/10/09 07:53:10;;;;;;;;;;;;;;;13.83;78.41;102974.25;5105204;28;19977;-73
2021/10/09 07:55:40;;;;;;;;;;;;;;;13.90;78.21;102966.75;5107757;28;19972;-73
2021/10/09 07:58:08;;;;;;;;;;;;;;;14.03;77.70;102984.13;5101888;28;19980;-73
2021/10/09 08:00:36;;;;;;;;;;;;;;;14.11;76.91;102981.09;5105328;28;20079;-73
2021/10/09 08:03:04;;;;;;;;;;;;;;;14.14;77.52;102976.41;5098408;28;19977;-73
2021/10/09 08:05:35;;;;;;;;;;;;;;;14.14;77.31;102978.25;5078577;28;20506;-73
2021/10/09 08:08:03;;;;;;;;;;;;;;;14.22;77.11;102967.94;5109023;28;20443;-73
2021/10/09 08:10:33;;;;;;;;;;;;;;;14.25;76.95;102968.66;5098995;28;19973;-74
2021/10/09 08:13:01;;;;;;;;;;;;;;;14.37;76.79;102966.31;5105306;28;19991;-73
2021/10/09 08:15:29;;;;;;;;;;;;;;;14.37;76.42;102967.19;5097372;28;20033;-73
2021/10/09 08:17:56;;;;;;;;;;;;;;;14.45;76.97;102975.88;5100408;28;19977;-73
2021/10/09 08:20:25;;;;;;;;;;;;;;;14.59;76.04;102967.06;5107355;28;20695;-74
2021/10/09 08:23:00;;;;;;;;;;;;;;;14.53;75.98;102973.66;5098899;28;19972;-73
2021/10/09 08:36:55;;;;;;;;;;;;;;;14.86;75.12;102972.97;5100363;28;19995;-65
2021/10/09 08:39:23;;;;;;;;;;;;;;;14.93;75.26;102965.41;5105820;28;19980;-65
2021/10/09 08:41:51;;;;;;;;;;;;;;;14.88;75.71;102968.34;5103094;28;19977;-66
2021/10/09 08:44:23;;;;;;;;;;;;;;;15.00;75.56;102974.97;5102813;28;19977;-66
2021/10/09 08:46:51;;;;;;;;;;;;;;;15.14;75.53;102969.75;5103446;28;19932;-66
2021/10/09 08:49:19;;;;;;;;;;;;;;;15.24;74.58;102965.59;5103562;28;19979;-67
2021/10/09 08:51:50;;;;;;;;;;;;;;;15.34;74.12;102969.59;5101318;28;20423;-67
2021/10/09 08:54:18;;;;;;;;;;;;;;;15.42;73.85;102961.06;5104495;28;20429;-67
2021/10/09 08:56:48;;;;;;;;;;;;;;;15.51;73.16;102964.16;5136195;27;19980;-67
2021/10/09 08:59:20;;;;;;;;;;;;;;;15.54;73.66;102968.53;5104424;28;19977;-67
2021/10/09 09:02:04;;;;;;;;;;;;;;;15.55;73.56;102967.56;5101292;28;20382;-66
2021/10/09 09:27:28;;;;;;;;;;;;;;;15.89;72.12;102954.94;5091888;28;20000;-73
2021/10/09 09:30:56;;;;;;;;;;;;;;;15.98;71.72;102955.34;5104698;28;19972;-74
2021/10/09 09:33:42;;;;;;;;;;;;;;;16.09;71.15;102955.63;5103969;28;20029;-73
2021/10/09 09:36:41;;;;;;;;;;;;;;;16.23;70.70;102954.00;5098009;28;20374;-73
2021/10/09 09:39:09;;;;;;;;;;;;;;;16.21;70.63;102959.47;5088912;28;19979;-73
2021/10/09 09:41:44;;;;;;;;;;;;;;;16.15;70.89;102948.97;5096364;28;20355;-73
2021/10/09 09:44:15;;;;;;;;;;;;;;;16.20;71.26;102957.72;5100879;28;19972;-73
2021/10/09 09:46:43;;;;;;;;;;;;;;;16.15;71.51;102957.09;5091012;28;19980;-73
2021/10/09 09:49:11;;;;;;;;;;;;;;;16.28;70.85;102951.88;5092701;28;20012;-73
2021/10/09 09:51:40;;;;;;;;;;;;;;;16.14;70.53;102952.66;5091811;28;19972;-73
2021/10/09 09:54:08;;;;;;;;;;;;;;;16.29;70.54;102951.81;5087140;28;20319;-74
2021/10/09 09:56:36;;;;;;;;;;;;;;;16.38;70.29;102945.84;5092743;28;19976;-73
2021/10/09 09:59:04;;;;;;;;;;;;;;;16.39;70.64;102949.44;5091525;28;20335;-73
2021/10/09 10:01:35;;;;;;;;;;;;;;;16.46;70.77;102954.41;5090275;28;19999;-73
2021/10/09 10:04:03;;;;;;;;;;;;;;;16.60;69.98;102966.34;5091207;28;20042;-73
2021/10/09 10:06:31;;;;;;;;;;;;;;;16.71;70.02;102961.19;5090533;28;19977;-73
2021/10/09 10:09:00;;;;;;;;;;;;;;;16.77;69.43;102961.69;5089612;28;20010;-73
2021/10/09 10:11:28;;;;;;;;;;;;;;;16.76;69.26;102954.50;5092239;28;19973;-74
2021/10/09 10:13:57;;;;;;;;;;;;;;;16.83;69.66;102956.88;5090919;28;20076;-73
2021/10/09 10:16:25;;;;;;;;;;;;;;;16.97;68.66;102957.81;5090221;28;19977;-73
2021/10/09 10:18:54;;;;;;;;;;;;;;;16.81;68.63;102954.25;5090248;28;19972;-73
2021/10/09 10:21:41;;;;;;;;;;;;;;;16.92;68.74;102951.78;5090242;28;19985;-73
2021/10/09 10:24:12;;;;;;;;;;;;;;;16.94;69.40;102955.28;5071997;28;20382;-67
2021/10/09 10:26:40;;;;;;;;;;;;;;;16.99;69.20;102950.47;5089106;28;20199;-67
2021/10/09 10:29:24;;;;;;;;;;;;;;;16.95;68.64;102951.59;5090329;28;20455;-67
2021/10/09 10:32:08;;;;;;;;;;;;;;;17.17;68.32;102950.34;5090424;28;19979;-67
2021/10/09 10:34:36;;;;;;;;;;;;;;;17.20;67.69;102942.00;5090280;28;19980;-67
2021/10/09 10:37:04;;;;;;;;;;;;;;;17.20;68.92;102940.16;5090252;28;20473;-67
2021/10/09 10:39:41;;;;;;;;;;;;;;;17.23;68.39;102947.25;5090723;28;19987;-68
2021/10/09 10:42:24;;;;;;;;;;;;;;;17.33;68.12;102946.59;5090089;28;19972;-67
2021/10/09 10:44:59;;;;;;;;;;;;;;;17.22;67.27;102948.22;5090189;28;19961;-74
2021/10/09 10:47:43;;;;;;;;;;;;;;;17.31;67.73;102934.06;5089887;28;19980;-73
2021/10/09 10:50:30;;;;;;;;;;;;;;;17.37;68.11;102936.41;5087930;28;19980;-74
2021/10/09 10:53:02;;;;;;;;;;;;;;;17.44;67.15;102937.75;5090438;28;19988;-73
2021/10/09 10:55:45;;;;;;;;;;;;;;;17.41;67.15;102932.53;5089741;28;19992;-74
2021/10/09 10:58:21;;;;;;;;;;;;;;;17.32;67.62;102933.97;5089906;28;20199;-74
2021/10/09 11:01:13;;;;;;;;;;;;;;;17.42;67.73;102930.69;5074939;28;19999;-72
2021/10/09 11:03:45;;;;;;;;;;;;;;;17.36;67.04;102930.09;5089700;28;20420;-74
2021/10/09 11:06:14;;;;;;;;;;;;;;;17.47;66.83;102921.31;5089414;28;19969;-67
2021/10/09 11:08:42;;;;;;;;;;;;;;;17.52;66.11;102919.16;5089481;28;20386;-67
2021/10/09 11:11:10;;;;;;;;;;;;;;;17.44;67.07;102929.63;5089400;28;20444;-66
2021/10/09 11:13:41;;;;;;;;;;;;;;;17.37;67.16;102928.25;5088304;28;19976;-66
2021/10/09 11:16:09;;;;;;;;;;;;;;;17.45;66.76;102928.69;5089387;28;19976;-67
2021/10/09 11:18:50;;;;;;;;;;;;;;;17.50;66.58;102923.81;5086739;28;20336;-68
2021/10/09 11:21:18;;;;;;;;;;;;;;;17.45;67.06;102920.53;5085508;28;19973;-67
2021/10/09 11:23:50;;;;;;;;;;;;;;;17.44;66.84;102926.03;5089433;28;20471;-67
2021/10/09 11:26:18;;;;;;;;;;;;;;;17.48;66.59;102923.06;5088575;28;20355;-67
2021/10/09 11:28:48;;;;;;;;;;;;;;;17.58;66.98;102915.19;5089412;28;20090;-67
2021/10/09 11:31:22;;;;;;;;;;;;;;;17.49;67.04;102913.94;5089022;28;19982;-67
2021/10/09 11:33:54;;;;;;;;;;;;;;;17.62;66.51;102912.19;5089683;28;19983;-67
2021/10/09 11:36:22;;;;;;;;;;;;;;;17.67;67.57;102914.63;5088933;28;19980;-67
2021/10/09 11:38:59;;;;;;;;;;;;;;;17.80;66.60;102912.03;5089420;28;19972;-67
2021/10/09 11:41:27;;;;;;;;;;;;;;;17.87;65.34;102924.25;5086904;28;19980;-67
2021/10/09 11:44:02;;;;;;;;;;;;;;;17.95;65.77;102917.34;5088827;28;20355;-67
2021/10/09 11:46:46;;;;;;;;;;;;;;;17.99;65.38;102916.19;5088565;28;19976;-68
2021/10/09 11:55:17;;;;;;;;;;;;;;;18.11;64.93;102914.53;5088186;28;19980;-67
2021/10/09 11:57:45;;;;;;;;;;;;;;;17.90;66.37;102924.94;5088754;28;20464;-67
2021/10/09 12:00:31;;;;;;;;;;;;;;;18.04;65.64;102920.44;5088394;28;19980;-66
2021/10/09 12:03:02;;;;;;;;;;;;;;;18.02;66.13;102923.28;5088436;28;20083;-66
2021/10/09 12:05:50;;;;;;;;;;;;;;;18.09;65.77;102913.78;5088214;28;20008;-67
2021/10/09 12:08:19;;;;;;;;;;;;;;;17.90;65.69;102919.50;5089475;28;19992;-67
2021/10/09 12:11:01;;;;;;;;;;;;;;;17.97;65.30;102914.53;5087097;28;19980;-67
2021/10/09 12:13:29;;;;;;;;;;;;;;;17.92;65.37;102917.56;5089122;28;19993;-67
2021/10/09 12:16:08;;;;;;;;;;;;;;;18.00;64.97;102917.94;5088397;28;19979;-66
2021/10/09 12:18:46;;;;;;;;;;;;;;;17.90;65.78;102919.50;5088569;28;19992;-67
2021/10/09 12:21:14;;;;;;;;;;;;;;;17.82;63.93;102904.66;5088448;28;19972;-67
2021/10/09 12:23:45;;;;;;;;;;;;;;;17.89;65.08;102906.88;5088434;28;20378;-67
2021/10/09 12:26:14;;;;;;;;;;;;;;;18.06;64.46;102903.09;5087764;28;20047;-67
2021/10/09 12:29:00;;;;;;;;;;;;;;;18.07;65.04;102899.41;5088342;28;19989;-67
2021/10/09 12:31:28;;;;;;;;;;;;;;;18.13;64.02;102899.00;5087712;28;20423;-67
2021/10/09 12:33:57;;;;;;;;;;;;;;;18.09;64.28;102897.44;5083631;28;19980;-67
2021/10/09 12:36:35;;;;;;;;;;;;;;;18.07;64.32;102898.53;5076728;28;20235;-67
2021/10/09 12:39:19;;;;;;;;;;;;;;;17.94;64.20;102906.59;5074667;28;20023;-67
2021/10/09 12:41:47;;;;;;;;;;;;;;;17.89;64.05;102908.72;5073169;28;20143;-67
2021/10/09 12:44:15;;;;;;;;;;;;;;;18.04;63.90;102898.69;5080089;28;19972;-67
2021/10/09 12:46:43;;;;;;;;;;;;;;;17.88;64.13;102898.81;5081637;28;20026;-68
2021/10/09 12:49:12;;;;;;;;;;;;;;;17.77;64.35;102893.22;5079524;28;19993;-67
2021/10/09 12:51:40;;;;;;;;;;;;;;;17.83;63.39;102890.09;5076604;28;19989;-68
2021/10/09 12:54:08;;;;;;;;;;;;;;;17.75;63.93;102889.69;5079651;28;20350;-67
2021/10/09 12:56:37;;;;;;;;;;;;;;;17.81;62.92;102886.59;5078673;28;19987;-68
2021/10/09 12:59:05;;;;;;;;;;;;;;;17.70;63.56;102876.41;5079089;28;20382;-67
2021/10/09 13:01:33;;;;;;;;;;;;;;;17.70;62.86;102873.69;5078650;28;20027;-67
2021/10/09 13:04:01;;;;;;;;;;;;;;;17.73;63.90;102878.03;5080275;28;20080;-67
2021/10/09 13:06:30;;;;;;;;;;;;;;;17.88;62.97;102860.75;5079820;28;19984;-67
2021/10/09 13:08:58;;;;;;;;;;;;;;;17.80;62.09;102863.13;5076842;28;19993;-67
2021/10/09 13:11:28;;;;;;;;;;;;;;;17.88;63.13;102860.75;5078256;28;20348;-68
2021/10/09 13:13:57;;;;;;;;;;;;;;;17.38;63.71;102789.63;5077472;28;19973;-66
2021/10/09 13:16:25;;;;;;;;;;;;;;;17.73;63.29;102861.72;5097535;28;19973;-66
2021/10/09 13:18:52;;;;;;;;;;;;;;;17.67;63.49;102865.72;5081531;28;19973;-67
2021/10/09 13:21:21;;;;;;;;;;;;;;;17.75;62.72;102851.63;5086952;28;19976;-69
2021/10/09 13:23:50;;;;;;;;;;;;;;;17.72;62.70;102851.84;5088526;28;19981;-68
2021/10/09 13:26:18;;;;;;;;;;;;;;;17.73;62.40;102848.16;5081912;28;20681;-68
2021/10/09 13:28:46;;;;;;;;;;;;;;;17.58;61.75;102841.81;5079055;28;19977;-69
2021/10/09 13:31:13;;;;;;;;;;;;;;;17.59;62.82;102851.72;5080044;28;19977;-68
2021/10/09 13:33:41;;;;;;;;;;;;;;;17.56;61.79;102846.47;5080761;28;20071;-68
2021/10/09 13:36:09;;;;;;;;;;;;;;;17.68;61.93;102843.88;5079770;28;19980;-66
2021/10/09 13:38:39;;;;;;;;;;;;;;;17.78;62.19;102837.88;5080219;28;19976;-66
2021/10/09 13:41:10;;;;;;;;;;;;;;;17.73;62.44;102840.00;5083533;28;19977;-66
2021/10/09 13:43:38;;;;;;;;;;;;;;;17.83;62.21;102835.72;5081607;28;19977;-66
2021/10/09 13:46:06;;;;;;;;;;;;;;;17.78;59.97;102835.16;5079843;28;19973;-66
2021/10/09 13:48:34;;;;;;;;;;;;;;;17.76;61.64;102828.94;5082820;28;20008;-66
2021/10/09 13:51:02;;;;;;;;;;;;;;;17.66;60.45;102824.06;5080276;28;19993;-67
2021/10/09 13:53:30;;;;;;;;;;;;;;;17.52;60.80;102826.78;5078152;28;20008;-66
2021/10/09 13:55:58;;;;;;;;;;;;;;;17.58;61.09;102815.53;5079147;28;20340;-67
2021/10/09 13:58:27;;;;;;;;;;;;;;;17.46;60.61;102816.31;5080660;28;19981;-67
2021/10/09 14:00:55;;;;;;;;;;;;;;;17.40;61.45;102822.13;5080926;28;19973;-67
2021/10/09 14:03:23;;;;;;;;;;;;;;;17.23;60.32;102814.16;5079452;28;20195;-66
2021/10/09 14:05:51;;;;;;;;;;;;;;;17.23;60.45;102814.16;5084553;28;19987;-67
2021/10/09 14:08:20;;;;;;;;;;;;;;;17.19;60.81;102820.78;5086762;28;19969;-68
2021/10/09 14:10:48;;;;;;;;;;;;;;;17.31;61.07;102814.56;5085726;28;20000;-68
2021/10/09 14:13:16;;;;;;;;;;;;;;;17.25;61.51;102809.50;5087399;28;19973;-66
2021/10/09 14:15:46;;;;;;;;;;;;;;;17.21;61.88;102805.25;5088225;28;19976;-67
2021/10/09 14:18:16;;;;;;;;;;;;;;;17.25;61.72;102804.97;5083790;28;20032;-66
2021/10/09 14:20:44;;;;;;;;;;;;;;;17.17;60.90;102810.00;5078757;28;20072;-66
2021/10/09 14:23:12;;;;;;;;;;;;;;;17.15;60.23;102808.34;5082132;28;20377;-66
2021/10/09 14:25:40;;;;;;;;;;;;;;;17.04;59.80;102804.44;5079060;28;20177;-67
2021/10/09 14:28:09;;;;;;;;;;;;;;;17.18;61.52;102797.31;5082621;28;20490;-65
2021/10/09 14:30:37;;;;;;;;;;;;;;;17.12;60.25;102803.97;5082810;28;20023;-66
2021/10/09 14:33:07;;;;;;;;;;;;;;;17.05;60.53;102798.03;5080465;28;19979;-67
2021/10/09 14:35:36;;;;;;;;;;;;;;;17.02;61.23;102794.66;5081911;28;20122;-66
2021/10/09 14:38:04;;;;;;;;;;;;;;;17.07;61.16;102796.09;5083950;28;20343;-67
2021/10/09 14:40:33;;;;;;;;;;;;;;;17.06;60.93;102791.66;5080777;28;19976;-75